createdAt,value
2023-03-02T00:00:16.586Z,37.17
2023-03-02T00:03:06.295Z,34.58
2023-03-02T00:05:55.662Z,35.97
2023-03-02T00:08:43.696Z,43.08
2023-03-02T00:11:33.696Z,41.22
2023-03-02T00:14:21.132Z,42.90
2023-03-02T00:17:10.531Z,45.95
2023-03-02T00:20:10.392Z,42.20
2023-03-02T00:22:58.317Z,40.50
2023-03-02T00:25:45.935Z,45.67
2023-03-02T00:28:35.472Z,47.28
2023-03-02T00:31:23.275Z,49.22
2023-03-02T00:34:10.681Z,51.58
2023-03-02T00:36:58.143Z,51.88
2023-03-02T00:39:46.324Z,50.15
2023-03-02T00:42:34.137Z,50.88
2023-03-02T00:45:23.020Z,49.25
2023-03-02T00:48:10.645Z,53.17
2023-03-02T00:51:01.660Z,51.25
2023-03-02T00:53:49.510Z,51.63
2023-03-02T00:56:37.024Z,51.92
2023-03-02T00:59:29.542Z,54.95
2023-03-02T01:02:39.112Z,57.97
2023-03-02T01:05:27.197Z,65.78
2023-03-02T01:08:14.762Z,63.25
2023-03-02T01:11:02.495Z,66.43
2023-03-02T01:13:51.492Z,60.83
2023-03-02T01:16:38.950Z,59.20
2023-03-02T01:19:28.289Z,61.53
2023-03-02T01:22:15.886Z,60.30
2023-03-02T01:25:03.630Z,65.60
2023-03-02T01:27:51.087Z,64.28
2023-03-02T01:30:38.729Z,62.10
2023-03-02T01:33:26.198Z,55.85
2023-03-02T01:36:15.357Z,58.65
2023-03-02T01:39:05.399Z,56.03
2023-03-02T01:41:54.258Z,54.08
2023-03-02T01:44:45.038Z,52.65
2023-03-02T01:47:36.728Z,52.75
2023-03-02T01:50:29.894Z,51.70
2023-03-02T01:53:24.074Z,48.15
2023-03-02T01:56:11.685Z,53.92
2023-03-02T01:59:02.525Z,51.83
2023-03-02T02:01:53.045Z,49.90
2023-03-02T02:04:43.587Z,56.72
2023-03-02T02:07:31.236Z,53.80
2023-03-02T02:10:20.852Z,54.92
2023-03-02T02:13:10.863Z,51.35
2023-03-02T02:15:58.740Z,48.92
2023-03-02T02:18:46.592Z,47.03
2023-03-02T02:21:34.133Z,45.35
2023-03-02T02:24:26.077Z,48.75
2023-03-02T02:27:15.820Z,46.42
2023-03-02T02:30:05.767Z,47.95
2023-03-02T02:32:55.843Z,47.10
2023-03-02T02:35:45.732Z,44.95
2023-03-02T02:38:35.863Z,44.80
2023-03-02T02:41:28.504Z,44.95
2023-03-02T02:44:19.404Z,45.20
2023-03-02T02:47:15.028Z,44.55
2023-03-02T02:50:02.974Z,45.97
2023-03-02T02:52:55.997Z,45.60
2023-03-02T02:55:44.292Z,42.55
2023-03-02T02:58:36.242Z,45.00
2023-03-02T03:01:26.696Z,43.53
2023-03-02T03:04:19.972Z,44.05
2023-03-02T03:07:08.463Z,41.70
2023-03-02T03:10:02.937Z,47.10
2023-03-02T03:12:52.258Z,47.42
2023-03-02T03:15:41.569Z,43.38
2023-03-02T03:18:31.905Z,41.10
2023-03-02T03:21:19.927Z,46.45
2023-03-02T03:24:08.419Z,44.78
2023-03-02T03:26:57.445Z,45.85
2023-03-02T03:29:48.184Z,49.13
2023-03-02T03:32:38.002Z,49.20
2023-03-02T03:35:27.479Z,49.47
2023-03-02T03:38:15.064Z,51.17
2023-03-02T03:41:06.608Z,55.00
2023-03-02T03:43:55.149Z,54.63
2023-03-02T03:46:43.031Z,53.45
2023-03-02T03:49:30.714Z,51.22
2023-03-02T03:52:30.436Z,48.25
2023-03-02T03:55:24.266Z,48.10
2023-03-02T03:58:11.988Z,50.95
2023-03-02T04:01:00.827Z,50.30
2023-03-02T04:03:48.185Z,51.58
2023-03-02T04:06:36.375Z,49.17
2023-03-02T04:09:26.065Z,47.60
2023-03-02T04:12:14.750Z,46.47
2023-03-02T04:15:15.073Z,52.10
2023-03-02T04:18:03.662Z,51.90
2023-03-02T04:20:52.292Z,50.17
2023-03-02T04:23:39.936Z,49.22
2023-03-02T04:26:28.798Z,50.45
2023-03-02T04:29:17.307Z,46.42
2023-03-02T04:32:04.993Z,45.72
2023-03-02T04:34:54.321Z,51.35
2023-03-02T04:37:43.183Z,46.65
2023-03-02T04:40:30.965Z,51.03
2023-03-02T04:43:19.649Z,51.58
2023-03-02T04:46:07.038Z,49.22
2023-03-02T04:48:55.017Z,47.38
2023-03-02T04:51:45.811Z,45.35
2023-03-02T04:54:34.977Z,50.03
2023-03-02T04:57:22.437Z,51.90
2023-03-02T05:00:13.453Z,47.50
2023-03-02T05:03:01.088Z,46.08
2023-03-02T05:05:48.822Z,49.33
2023-03-02T05:08:36.216Z,52.50
2023-03-02T05:11:23.852Z,52.85
2023-03-02T05:14:14.104Z,51.47
2023-03-02T05:17:05.952Z,52.92
2023-03-02T05:19:53.254Z,48.30
2023-03-02T05:22:40.649Z,51.15
2023-03-02T05:25:29.868Z,51.45
2023-03-02T05:28:18.091Z,54.92
2023-03-02T05:31:07.822Z,51.95
2023-03-02T05:33:56.980Z,45.78
2023-03-02T05:36:45.284Z,50.17
2023-03-02T05:39:33.103Z,46.33
2023-03-02T05:42:20.490Z,48.67
2023-03-02T05:45:09.886Z,49.13
2023-03-02T05:47:57.830Z,48.30
2023-03-02T05:50:46.771Z,47.53
2023-03-02T05:53:34.743Z,48.58
2023-03-02T05:56:22.628Z,49.10
2023-03-02T05:59:10.075Z,46.40
2023-03-02T06:01:59.336Z,47.00
2023-03-02T06:04:47.022Z,47.65
2023-03-02T06:07:35.926Z,46.58
2023-03-02T06:10:23.787Z,47.63
2023-03-02T06:13:11.299Z,48.15
2023-03-02T06:15:59.070Z,46.60
2023-03-02T06:18:46.895Z,50.97
2023-03-02T06:21:34.579Z,48.70
2023-03-02T06:24:23.701Z,51.35
2023-03-02T06:27:11.658Z,56.58
2023-03-02T06:29:59.365Z,66.65
2023-03-02T06:32:46.837Z,61.75
2023-03-02T06:35:35.011Z,69.50
2023-03-02T06:38:22.560Z,72.78
2023-03-02T06:41:11.721Z,74.78
2023-03-02T06:43:59.306Z,68.75
2023-03-02T06:46:46.965Z,62.40
2023-03-02T06:49:34.720Z,61.10
2023-03-02T06:52:22.446Z,61.90
2023-03-02T06:55:11.159Z,59.25
2023-03-02T06:58:00.295Z,51.88
2023-03-02T07:00:48.158Z,51.97
2023-03-02T07:03:36.217Z,53.35
2023-03-02T07:06:23.697Z,56.00
2023-03-02T07:09:11.142Z,58.28
2023-03-02T07:11:58.601Z,55.85
2023-03-02T07:14:47.562Z,58.97
2023-03-02T07:17:35.587Z,55.58
2023-03-02T07:20:23.115Z,56.78
2023-03-02T07:23:10.464Z,57.35
2023-03-02T07:25:58.788Z,57.53
2023-03-02T07:28:46.227Z,57.85
2023-03-02T07:31:35.299Z,56.28
2023-03-02T07:34:22.877Z,55.50
2023-03-02T07:37:10.380Z,57.90
2023-03-02T07:39:59.686Z,57.38
2023-03-02T07:42:48.293Z,56.15
2023-03-02T07:45:35.800Z,52.60
2023-03-02T07:48:24.735Z,50.47
2023-03-02T07:51:12.117Z,47.38
2023-03-02T07:53:59.535Z,48.45
2023-03-02T07:56:47.412Z,45.65
2023-03-02T07:59:35.124Z,45.75
2023-03-02T08:02:23.034Z,43.78
2023-03-02T08:05:13.233Z,41.10
2023-03-02T08:08:00.772Z,41.65
2023-03-02T08:10:48.523Z,42.30
2023-03-02T08:13:35.939Z,42.15
2023-03-02T08:16:25.711Z,44.65
2023-03-02T08:19:13.196Z,42.72
2023-03-02T08:22:02.282Z,45.80
2023-03-02T08:24:49.850Z,44.38
2023-03-02T08:27:38.210Z,43.92
2023-03-02T08:30:25.868Z,43.05
2023-03-02T08:33:13.246Z,41.45
2023-03-02T08:36:03.131Z,41.97
2023-03-02T08:38:52.191Z,35.13
2023-03-02T08:41:40.038Z,36.45
2023-03-02T08:44:27.743Z,35.17
2023-03-02T08:47:15.251Z,32.63
2023-03-02T08:50:02.612Z,33.20
2023-03-02T08:52:50.009Z,30.65
2023-03-02T08:55:39.061Z,33.17
2023-03-02T08:58:27.051Z,29.45
2023-03-02T09:01:16.331Z,31.40
2023-03-02T09:04:05.244Z,32.17
2023-03-02T09:06:52.537Z,30.23
2023-03-02T09:09:39.953Z,27.58
2023-03-02T09:12:29.148Z,26.73
2023-03-02T09:15:16.477Z,28.10
2023-03-02T09:18:03.807Z,29.55
2023-03-02T09:20:55.119Z,31.23
2023-03-02T09:23:42.604Z,29.75
2023-03-02T09:26:30.179Z,28.35
2023-03-02T09:29:18.855Z,27.25
2023-03-02T09:32:06.573Z,25.02
2023-03-02T09:34:54.456Z,24.38
2023-03-02T09:37:44.257Z,24.88
2023-03-02T09:40:34.428Z,26.88
2023-03-02T09:43:33.914Z,28.38
2023-03-02T09:46:27.450Z,28.70
2023-03-02T09:49:29.219Z,27.95
2023-03-02T09:52:30.041Z,27.95
2023-03-02T09:55:20.548Z,27.08
2023-03-02T09:58:15.887Z,28.63
2023-03-02T10:01:10.411Z,26.67
2023-03-02T10:04:08.010Z,29.42
2023-03-02T10:07:02.549Z,27.65
2023-03-02T10:09:50.289Z,31.13
2023-03-02T10:12:47.661Z,29.25
2023-03-02T10:15:42.169Z,30.38
2023-03-02T10:18:36.606Z,26.83
2023-03-02T10:21:29.784Z,28.35
2023-03-02T10:24:29.134Z,27.15
2023-03-02T10:27:20.652Z,25.73
2023-03-02T10:30:17.701Z,24.70
2023-03-02T10:33:15.110Z,24.85
2023-03-02T10:36:04.205Z,21.33
2023-03-02T10:38:54.459Z,16.55
2023-03-02T10:41:47.258Z,17.00
2023-03-02T10:44:37.849Z,21.75
2023-03-02T10:47:27.988Z,21.05
2023-03-02T10:50:23.848Z,20.95
2023-03-02T10:53:18.868Z,19.63
2023-03-02T10:56:19.916Z,19.27
2023-03-02T10:59:27.978Z,18.73
2023-03-02T11:02:23.495Z,19.20
2023-03-02T11:05:29.851Z,18.83
2023-03-02T11:08:20.239Z,18.80
2023-03-02T11:11:23.122Z,18.52
2023-03-02T11:14:15.241Z,19.00
2023-03-02T11:17:03.617Z,19.40
2023-03-02T11:19:52.705Z,18.30
2023-03-02T11:22:46.518Z,20.15
2023-03-02T11:25:40.127Z,19.50
2023-03-02T11:28:37.492Z,18.00
2023-03-02T11:31:33.909Z,17.92
2023-03-02T11:34:33.905Z,17.15
2023-03-02T11:37:24.234Z,18.20
2023-03-02T11:40:22.599Z,15.38
2023-03-02T11:43:13.018Z,16.95
2023-03-02T11:46:10.833Z,16.88
2023-03-02T11:49:05.566Z,18.25
2023-03-02T11:51:59.054Z,18.83
2023-03-02T11:54:50.594Z,18.35
2023-03-02T11:57:44.464Z,19.45
2023-03-02T12:00:35.520Z,20.20
2023-03-02T12:03:38.454Z,19.65
2023-03-02T12:06:30.576Z,18.10
2023-03-02T12:09:33.288Z,19.13
2023-03-02T12:12:44.569Z,15.77
2023-03-02T12:15:39.276Z,11.90
2023-03-02T12:18:44.630Z,15.27
2023-03-02T12:21:41.547Z,14.48
2023-03-02T12:24:30.838Z,15.23
2023-03-02T12:27:27.693Z,16.67
2023-03-02T12:33:22.352Z,12.90
2023-03-02T12:36:16.376Z,11.40
2023-03-02T12:39:22.297Z,11.48
2023-03-02T12:42:30.456Z,10.82
2023-03-02T12:45:34.816Z,10.10
2023-03-02T12:48:27.976Z,10.55
2023-03-02T12:51:22.263Z,9.77
2023-03-02T12:54:15.274Z,11.43
2023-03-02T12:57:09.183Z,11.50
2023-03-02T12:59:59.023Z,13.07
2023-03-02T13:02:49.596Z,10.15
2023-03-02T13:05:38.438Z,12.93
2023-03-02T13:08:29.685Z,11.48
2023-03-02T13:11:31.032Z,9.57
2023-03-02T13:14:22.074Z,9.60
2023-03-02T13:17:25.933Z,11.10
2023-03-02T13:20:16.193Z,8.93
2023-03-02T13:23:05.082Z,11.00
2023-03-02T13:25:55.855Z,11.15
2023-03-02T13:28:43.663Z,10.48
2023-03-02T13:31:32.112Z,8.55
2023-03-02T13:34:23.378Z,11.02
2023-03-02T13:37:24.787Z,8.10
2023-03-02T13:40:40.680Z,7.18
2023-03-02T13:43:40.418Z,9.95
2023-03-02T13:46:36.709Z,12.93
2023-03-02T13:49:29.510Z,10.18
2023-03-02T13:52:24.827Z,9.25
2023-03-02T13:55:15.684Z,12.27
2023-03-02T13:58:03.694Z,14.77
2023-03-02T14:00:53.433Z,14.40
2023-03-02T14:03:41.118Z,14.55
2023-03-02T14:06:28.701Z,16.80
2023-03-02T14:09:16.136Z,15.70
2023-03-02T14:12:03.603Z,15.88
2023-03-02T14:14:52.682Z,15.32
2023-03-02T14:17:42.545Z,16.10
2023-03-02T14:20:29.984Z,15.73
2023-03-02T14:23:17.274Z,15.45
2023-03-02T14:26:20.304Z,16.40
2023-03-02T14:29:20.840Z,15.50
2023-03-02T14:32:11.272Z,16.00
2023-03-02T14:35:01.076Z,15.60
2023-03-02T14:37:50.723Z,15.68
2023-03-02T14:40:38.336Z,13.75
2023-03-02T14:43:26.350Z,15.60
2023-03-02T14:46:14.018Z,15.10
2023-03-02T14:49:01.885Z,14.73
2023-03-02T14:51:59.301Z,14.70
2023-03-02T14:54:52.131Z,15.05
2023-03-02T14:57:39.888Z,13.63
2023-03-02T15:00:28.675Z,14.45
2023-03-02T15:03:19.417Z,15.40
2023-03-02T15:06:17.724Z,15.38
2023-03-02T15:09:07.773Z,16.20
2023-03-02T15:11:55.633Z,17.58
2023-03-02T15:14:43.358Z,19.40
2023-03-02T15:17:31.096Z,25.33
2023-03-02T15:20:18.575Z,30.33
2023-03-02T15:23:06.491Z,34.90
2023-03-02T15:26:00.020Z,37.75
2023-03-02T15:28:51.360Z,38.25
2023-03-02T15:31:39.009Z,37.08
2023-03-02T15:34:26.790Z,40.60
2023-03-02T15:37:14.457Z,37.83
2023-03-02T15:40:02.083Z,36.78
2023-03-02T15:42:51.265Z,37.50
2023-03-02T15:45:38.613Z,36.45
2023-03-02T15:48:26.067Z,35.55
2023-03-02T15:51:13.727Z,36.70
2023-03-02T15:54:01.172Z,35.70
2023-03-02T15:56:52.030Z,36.42
2023-03-02T15:59:41.108Z,36.55
2023-03-02T16:02:28.414Z,35.22
2023-03-02T16:05:17.505Z,37.17
2023-03-02T16:08:05.631Z,33.83
2023-03-02T16:10:59.942Z,36.10
2023-03-02T16:13:47.372Z,34.47
2023-03-02T16:16:36.499Z,34.03
2023-03-02T16:19:24.208Z,35.50
2023-03-02T16:22:11.634Z,34.47
2023-03-02T16:24:59.158Z,35.75
2023-03-02T16:27:47.722Z,34.55
2023-03-02T16:30:36.076Z,34.08
2023-03-02T16:33:25.959Z,32.05
2023-03-02T16:36:14.919Z,30.00
2023-03-02T16:39:02.442Z,29.05
2023-03-02T16:41:51.339Z,30.50
2023-03-02T16:44:39.310Z,31.92
2023-03-02T16:47:26.832Z,29.17
2023-03-02T16:50:17.951Z,32.03
2023-03-02T16:53:05.282Z,31.70
2023-03-02T16:55:52.757Z,31.10
2023-03-02T16:58:41.487Z,30.30
2023-03-02T17:01:29.409Z,31.45
2023-03-02T17:04:18.480Z,34.17
2023-03-02T17:07:07.935Z,34.90
2023-03-02T17:09:55.760Z,34.72
2023-03-02T17:12:43.480Z,33.00
2023-03-02T17:15:31.155Z,33.97
2023-03-02T17:18:18.506Z,35.58
2023-03-02T17:21:06.914Z,34.30
2023-03-02T17:23:56.031Z,32.60
2023-03-02T17:26:43.600Z,31.90
2023-03-02T17:29:30.926Z,33.20
2023-03-02T17:32:18.473Z,33.67
2023-03-02T17:35:06.463Z,32.40
2023-03-02T17:37:53.928Z,32.22
2023-03-02T17:40:42.705Z,36.88
2023-03-02T17:43:33.171Z,35.03
2023-03-02T17:46:23.409Z,35.30
2023-03-02T17:49:11.248Z,36.67
2023-03-02T17:51:59.060Z,33.55
2023-03-02T17:54:46.676Z,33.30
2023-03-02T17:57:35.414Z,34.08
2023-03-02T18:00:25.264Z,32.55
2023-03-02T18:03:13.019Z,32.80
2023-03-02T18:06:00.698Z,34.10
2023-03-02T18:08:50.021Z,33.42
2023-03-02T18:11:37.534Z,32.70
2023-03-02T18:14:28.510Z,34.90
2023-03-02T18:17:16.069Z,29.48
2023-03-02T18:20:03.928Z,35.38
2023-03-02T18:22:51.385Z,34.78
2023-03-02T18:25:38.815Z,36.92
2023-03-02T18:28:27.171Z,36.25
2023-03-02T18:31:16.464Z,35.13
2023-03-02T18:34:04.341Z,36.67
2023-03-02T18:36:51.685Z,36.58
2023-03-02T18:39:39.416Z,36.30
2023-03-02T18:42:26.904Z,34.67
2023-03-02T18:45:22.227Z,34.20
2023-03-02T18:48:11.258Z,33.85
2023-03-02T18:50:59.097Z,35.45
2023-03-02T18:53:47.322Z,33.50
2023-03-02T18:56:35.094Z,35.92
2023-03-02T18:59:22.408Z,37.72
2023-03-02T19:02:14.318Z,39.65
2023-03-02T19:05:03.413Z,35.03
2023-03-02T19:07:51.096Z,35.03
2023-03-02T19:10:42.305Z,36.35
2023-03-02T19:13:30.119Z,38.03
2023-03-02T19:16:18.612Z,39.58
2023-03-02T19:19:06.256Z,35.55
2023-03-02T19:21:55.292Z,36.85
2023-03-02T19:24:44.354Z,36.00
2023-03-02T19:27:31.886Z,35.42
2023-03-02T19:30:22.703Z,37.35
2023-03-02T19:33:10.357Z,33.92
2023-03-02T19:35:58.302Z,36.08
2023-03-02T19:38:47.438Z,35.53
2023-03-02T19:41:35.053Z,38.45
2023-03-02T19:44:22.332Z,38.45
2023-03-02T19:47:09.841Z,40.80
2023-03-02T19:49:57.416Z,37.92
2023-03-02T19:52:45.419Z,35.35
2023-03-02T19:55:34.955Z,37.58
2023-03-02T19:58:23.561Z,38.25
2023-03-02T20:01:11.495Z,37.83
2023-03-02T20:04:00.130Z,36.05
2023-03-02T20:06:47.855Z,36.13
2023-03-02T20:09:35.175Z,36.85
2023-03-02T20:12:24.293Z,38.05
2023-03-02T20:15:12.834Z,40.97
2023-03-02T20:18:02.710Z,41.67
2023-03-02T20:20:50.375Z,43.58
2023-03-02T20:23:37.930Z,39.67
2023-03-02T20:26:27.088Z,37.90
2023-03-02T20:29:16.793Z,41.92
2023-03-02T20:32:08.890Z,43.13
2023-03-02T20:34:56.405Z,50.13
2023-03-02T20:37:46.037Z,44.47
2023-03-02T20:40:34.855Z,41.08
2023-03-02T20:43:22.798Z,39.92
2023-03-02T20:46:18.194Z,40.08
2023-03-02T20:49:06.977Z,38.30
2023-03-02T20:51:56.739Z,35.67
2023-03-02T20:54:45.178Z,39.30
2023-03-02T20:57:32.906Z,40.20
2023-03-02T21:00:25.084Z,46.85
2023-03-02T21:03:14.772Z,39.80
2023-03-02T21:06:02.880Z,38.15
2023-03-02T21:08:50.584Z,46.15
2023-03-02T21:11:38.870Z,39.42
2023-03-02T21:14:27.489Z,37.90
2023-03-02T21:17:15.076Z,40.63
2023-03-02T21:20:04.587Z,44.35
2023-03-02T21:22:52.049Z,43.40
2023-03-02T21:25:42.309Z,37.03
2023-03-02T21:28:30.542Z,44.08
2023-03-02T21:31:19.651Z,46.08
2023-03-02T21:34:08.347Z,40.88
2023-03-02T21:36:57.806Z,39.97
2023-03-02T21:39:45.808Z,38.03
2023-03-02T21:42:33.524Z,38.70
2023-03-02T21:45:22.449Z,39.15
2023-03-02T21:48:10.381Z,41.25
2023-03-02T21:50:58.027Z,45.05
2023-03-02T21:53:47.341Z,36.00
2023-03-02T21:56:35.619Z,34.58
2023-03-02T21:59:23.410Z,37.40
2023-03-02T22:02:12.453Z,34.83
2023-03-02T22:05:00.115Z,40.03
2023-03-02T22:07:48.258Z,33.50
2023-03-02T22:10:41.266Z,35.70
2023-03-02T22:13:32.318Z,35.50
2023-03-02T22:16:21.653Z,35.72
2023-03-02T22:19:25.116Z,34.45
2023-03-02T22:22:18.886Z,36.78
2023-03-02T22:25:16.123Z,41.28
2023-03-02T22:28:14.528Z,35.88
2023-03-02T22:31:02.052Z,34.03
2023-03-02T22:33:50.323Z,31.45
2023-03-02T22:36:37.990Z,31.83
2023-03-02T22:39:31.629Z,36.42
2023-03-02T22:42:21.354Z,34.72
2023-03-02T22:45:15.572Z,32.70
2023-03-02T22:48:03.536Z,31.83
2023-03-02T22:50:51.592Z,33.58
2023-03-02T22:53:46.851Z,34.83
2023-03-02T22:56:37.197Z,29.60
2023-03-02T22:59:26.479Z,34.63
2023-03-02T23:02:22.351Z,35.08
2023-03-02T23:05:26.075Z,32.83
2023-03-02T23:08:22.327Z,34.50
2023-03-02T23:11:16.047Z,38.92
2023-03-02T23:14:08.474Z,32.70
2023-03-02T23:16:59.945Z,30.83
2023-03-02T23:19:49.754Z,31.60
2023-03-02T23:22:39.161Z,32.50
2023-03-02T23:25:26.655Z,31.13
2023-03-02T23:28:14.129Z,34.13
2023-03-02T23:31:01.929Z,34.33
2023-03-02T23:33:49.597Z,33.45
2023-03-02T23:36:39.774Z,35.35
2023-03-02T23:39:27.872Z,36.13
2023-03-02T23:42:15.526Z,34.72
2023-03-02T23:45:02.958Z,30.95
2023-03-02T23:47:50.240Z,31.75
2023-03-02T23:50:37.828Z,33.45
2023-03-02T23:53:27.284Z,34.35
2023-03-02T23:56:14.948Z,36.40
2023-03-02T23:59:03.296Z,35.50
